Time;durP1;ratioP1;P1;durP2;ratioP2;P2;SDS_P1;SDS_P2;PMS_P1;PMS_P2;Temp;Humidity;BMP_temperature;BMP_pressure;BME280_temperature;BME280_humidity;BME280_pressure;Samples;Min_cycle;Max_cycle;Signal;HPM_P1;HPM_P2
2024/01/27 00:00:20;;;;;;;12.77;11.80;;;;;;;3.99;64.06;93188.16;5010212;28;20607;-76
2024/01/27 00:02:46;;;;;;;13.37;12.53;;;;;;;3.89;63.59;93182.00;5000515;28;20196;-76
2024/01/27 00:05:12;;;;;;;12.30;11.37;;;;;;;3.93;61.32;93146.94;5005426;28;21072;-75
2024/01/27 00:07:37;;;;;;;11.50;10.90;;;;;;;4.22;62.60;93159.72;4997127;28;20975;-76
2024/01/27 00:10:03;;;;;;;11.80;11.07;;;;;;;4.05;58.89;93155.47;5015649;28;20211;-77
2024/01/27 00:12:28;;;;;;;11.70;10.90;;;;;;;3.98;59.55;93159.97;5007980;28;20246;-75
2024/01/27 00:14:53;;;;;;;10.40;9.57;;;;;;;4.05;55.98;93171.75;5016493;28;20194;-77
2024/01/27 00:17:25;;;;;;;10.33;9.93;;;;;;;4.06;50.68;93142.31;5000115;28;20211;-75
2024/01/27 00:19:51;;;;;;;10.67;10.07;;;;;;;4.23;48.75;93181.19;5001645;28;20247;-76
2024/01/27 00:22:16;;;;;;;10.57;9.87;;;;;;;4.36;47.88;93160.28;5002556;28;20223;-77
2024/01/27 00:24:43;;;;;;;10.27;9.57;;;;;;;4.30;49.53;93164.56;4995722;28;20185;-75
2024/01/27 00:27:08;;;;;;;10.13;9.43;;;;;;;4.28;49.25;93145.91;5008299;28;20235;-77
2024/01/27 00:29:33;;;;;;;9.93;9.43;;;;;;;4.27;51.72;93141.75;4999639;28;20204;-76
2024/01/27 00:31:59;;;;;;;9.93;9.33;;;;;;;4.34;50.07;93150.16;5003791;28;20223;-77
2024/01/27 00:34:25;;;;;;;10.60;9.90;;;;;;;4.43;52.36;93174.66;5003824;28;20194;-76
2024/01/27 00:36:50;;;;;;;11.33;10.70;;;;;;;4.55;50.80;93151.38;5014597;28;20219;-76
2024/01/27 00:39:16;;;;;;;9.80;9.30;;;;;;;4.61;43.90;93164.16;5039248;28;20830;-75
2024/01/27 00:41:42;;;;;;;10.63;10.07;;;;;;;4.55;45.07;93172.84;5006269;28;20242;-76
2024/01/27 00:44:08;;;;;;;9.27;8.77;;;;;;;4.50;44.76;93153.84;5000422;28;20222;-76
2024/01/27 00:46:33;;;;;;;10.47;9.77;;;;;;;4.43;47.32;93176.47;5004957;28;20314;-76
2024/01/27 00:48:58;;;;;;;11.20;10.40;;;;;;;4.46;48.01;93147.56;5010279;28;20200;-76
2024/01/27 00:51:24;;;;;;;10.70;10.03;;;;;;;4.45;47.10;93141.59;5010718;28;20229;-77
2024/01/27 00:53:49;;;;;;;10.70;10.23;;;;;;;4.74;46.84;93156.16;5008440;28;20187;-76
2024/01/27 00:56:14;;;;;;;10.10;9.60;;;;;;;4.57;43.67;93165.66;5005774;28;20218;-76
2024/01/27 00:58:40;;;;;;;10.60;10.00;;;;;;;3.81;46.98;93072.06;5037332;28;20191;-77
2024/01/27 01:01:06;;;;;;;11.87;10.73;;;;;;;4.55;47.68;93157.34;5001831;28;20220;-76
2024/01/27 01:03:31;;;;;;;10.57;10.07;;;;;;;4.36;46.63;93140.38;5008270;28;20187;-76
2024/01/27 01:05:56;;;;;;;10.90;10.37;;;;;;;4.65;42.32;93167.84;5011469;28;20261;-75
2024/01/27 01:08:22;;;;;;;10.23;9.63;;;;;;;4.57;42.98;93154.50;5006613;28;20195;-75
2024/01/27 01:10:47;;;;;;;9.87;9.47;;;;;;;4.66;42.84;93137.63;5006769;28;20230;-76
2024/01/27 01:13:13;;;;;;;10.50;9.90;;;;;;;4.69;40.72;93148.31;4994391;28;20274;-77
2024/01/27 01:15:39;;;;;;;10.63;10.23;;;;;;;4.75;41.36;93147.38;4995895;28;20232;-75
2024/01/27 01:18:05;;;;;;;11.03;10.07;;;;;;;4.80;41.79;93154.44;5000370;28;20187;-76
2024/01/27 01:20:32;;;;;;;11.27;10.53;;;;;;;4.84;42.59;93153.00;4995647;28;20752;-76
2024/01/27 01:22:57;;;;;;;10.33;9.80;;;;;;;4.88;42.15;93146.31;5007364;28;20909;-77
2024/01/27 01:25:23;;;;;;;9.70;9.03;;;;;;;4.85;44.20;93160.53;5001097;28;20172;-76
2024/01/27 01:27:49;;;;;;;9.43;8.97;;;;;;;4.85;42.43;93152.75;5003294;28;20179;-76
2024/01/27 01:30:16;;;;;;;10.60;10.10;;;;;;;4.83;43.84;93138.47;4996629;28;20235;-76
2024/01/27 01:32:42;;;;;;;10.70;10.30;;;;;;;4.88;41.83;93154.88;5012258;28;20238;-74
2024/01/27 01:35:08;;;;;;;11.27;10.53;;;;;;;4.95;42.30;93146.97;5000837;28;20255;-74
2024/01/27 01:37:33;;;;;;;10.27;9.73;;;;;;;4.97;41.41;93137.97;5047034;28;20193;-76
2024/01/27 01:39:59;;;;;;;10.53;10.13;;;;;;;5.02;41.74;93132.09;5021796;28;20231;-76
2024/01/27 01:42:24;;;;;;;9.83;9.40;;;;;;;5.16;40.09;93137.75;4996166;28;20238;-76
2024/01/27 01:44:59;;;;;;;10.63;10.10;;;;;;;5.11;39.55;93129.91;5012694;28;20192;-78
2024/01/27 01:47:25;;;;;;;10.33;9.83;;;;;;;5.04;39.70;93119.72;4995238;28;20364;-76
2024/01/27 01:49:50;;;;;;;10.83;10.43;;;;;;;5.08;41.47;93135.53;5003577;28;20240;-76
2024/01/27 01:52:19;;;;;;;10.87;10.27;;;;;;;5.17;40.53;93126.41;5002150;28;20226;-77
2024/01/27 01:54:49;;;;;;;10.13;9.43;;;;;;;4.93;40.49;93113.56;5008639;28;20202;-75
2024/01/27 01:57:14;;;;;;;10.93;10.23;;;;;;;4.86;41.02;93105.16;4993533;28;20232;-76
2024/01/27 01:59:41;;;;;;;9.93;9.53;;;;;;;5.25;36.36;93126.00;5001653;28;20171;-74
2024/01/27 02:02:07;;;;;;;11.27;10.57;;;;;;;5.31;36.75;93122.50;5000727;28;20222;-77
2024/01/27 02:04:42;;;;;;;9.93;9.43;;;;;;;5.25;36.52;93126.00;5003104;28;20262;-76
2024/01/27 02:07:08;;;;;;;9.77;9.27;;;;;;;5.40;35.71;93128.88;5004439;28;20274;-78
2024/01/27 02:09:34;;;;;;;10.27;9.77;;;;;;;5.56;35.97;93115.13;5017669;28;20211;-76
2024/01/27 02:11:59;;;;;;;9.80;9.30;;;;;;;5.42;36.15;93112.06;4999076;28;20216;-77
2024/01/27 02:14:27;;;;;;;9.60;9.17;;;;;;;5.45;36.07;93100.47;5025859;28;20277;-76
2024/01/27 02:16:53;;;;;;;10.10;9.40;;;;;;;5.49;35.68;93096.38;5007088;28;20281;-76
2024/01/27 02:19:18;;;;;;;9.87;9.47;;;;;;;5.51;36.55;93095.13;4998205;28;20211;-76
2024/01/27 02:21:43;;;;;;;11.03;10.33;;;;;;;5.35;38.35;93089.94;5001922;28;20250;-77
2024/01/27 02:24:10;;;;;;;10.33;9.87;;;;;;;5.34;38.71;93083.22;4992763;28;20226;-76
2024/01/27 02:26:35;;;;;;;10.87;10.37;;;;;;;5.24;40.81;93076.06;5003349;28;20242;-76
2024/01/27 02:29:00;;;;;;;9.83;9.43;;;;;;;5.19;41.72;93077.78;5023102;28;20183;-76
2024/01/27 02:31:26;;;;;;;9.70;9.23;;;;;;;5.30;42.13;93092.47;5007317;28;20235;-75
2024/01/27 02:33:52;;;;;;;9.50;8.97;;;;;;;5.25;40.85;93076.84;5003526;28;20192;-75
2024/01/27 02:36:17;;;;;;;10.47;9.87;;;;;;;5.30;40.26;93076.91;5018077;28;20230;-77
2024/01/27 02:38:42;;;;;;;10.63;10.23;;;;;;;5.17;42.91;93064.31;5005859;28;20786;-75
2024/01/27 02:41:09;;;;;;;9.80;9.27;;;;;;;5.08;43.06;93069.06;5010130;28;20303;-77
2024/01/27 02:43:35;;;;;;;9.60;9.07;;;;;;;5.02;41.33;93069.22;5012126;28;20172;-77
2024/01/27 02:46:01;;;;;;;10.37;9.87;;;;;;;5.16;37.93;93070.47;5006374;28;20228;-76
2024/01/27 02:48:26;;;;;;;10.47;9.93;;;;;;;5.37;38.04;93085.34;5018622;28;20176;-76
2024/01/27 02:50:51;;;;;;;9.03;8.53;;;;;;;5.28;39.50;93094.47;5009725;28;20223;-78
2024/01/27 02:53:17;;;;;;;10.40;9.93;;;;;;;5.30;37.81;93087.28;5006308;28;20188;-76
2024/01/27 02:55:42;;;;;;;9.43;9.10;;;;;;;5.38;36.86;93069.56;5007527;28;20219;-76
2024/01/27 02:58:07;;;;;;;9.53;8.97;;;;;;;5.59;38.86;93079.19;5007197;28;20179;-76
2024/01/27 03:00:33;;;;;;;9.87;9.37;;;;;;;5.61;40.83;93073.78;5000625;28;20227;-76
2024/01/27 03:02:58;;;;;;;10.00;9.57;;;;;;;5.54;43.58;93086.13;5009143;28;20184;-76
2024/01/27 03:05:24;;;;;;;9.90;9.47;;;;;;;5.34;43.60;93072.88;5013547;28;20212;-76
2024/01/27 03:07:49;;;;;;;10.27;9.77;;;;;;;5.29;46.23;93075.38;5014814;28;20187;-76
2024/01/27 03:10:14;;;;;;;10.47;9.97;;;;;;;5.18;49.97;93083.97;5004121;28;20220;-76
2024/01/27 03:12:40;;;;;;;10.20;9.63;;;;;;;5.15;53.26;93085.25;5009808;28;20180;-76
2024/01/27 03:15:05;;;;;;;10.80;10.00;;;;;;;5.09;54.40;93091.31;5007882;28;20187;-76
2024/01/27 03:17:31;;;;;;;9.53;9.03;;;;;;;5.14;56.69;93091.41;5007968;28;20229;-76
2024/01/27 03:19:56;;;;;;;10.83;10.23;;;;;;;5.02;58.83;93085.53;5013359;28;20195;-79
2024/01/27 03:22:21;;;;;;;10.10;9.60;;;;;;;4.83;61.85;93102.25;5014626;28;20242;-76
2024/01/27 03:24:47;;;;;;;10.83;10.27;;;;;;;4.79;64.27;93076.06;5008928;28;20263;-77
2024/01/27 03:27:12;;;;;;;10.70;10.10;;;;;;;4.80;67.33;93077.66;5004097;28;20302;-77
2024/01/27 03:29:37;;;;;;;10.43;9.93;;;;;;;4.74;69.16;93086.34;5007305;28;20272;-76
2024/01/27 03:32:03;;;;;;;10.03;9.57;;;;;;;4.71;69.72;93076.47;5006588;28;20260;-76
2024/01/27 03:34:28;;;;;;;10.03;9.63;;;;;;;4.52;73.80;93080.22;5029994;28;20180;-76
2024/01/27 03:36:54;;;;;;;10.53;9.93;;;;;;;4.62;76.38;93062.31;5007381;28;20234;-76
2024/01/27 03:39:19;;;;;;;9.77;9.27;;;;;;;4.82;78.47;93080.00;5014678;28;20321;-76
2024/01/27 03:41:44;;;;;;;10.80;10.13;;;;;;;4.59;78.81;93062.78;5009221;28;20219;-75
2024/01/27 03:44:10;;;;;;;10.03;9.53;;;;;;;4.60;81.42;93064.34;5002102;28;20195;-77
2024/01/27 03:46:37;;;;;;;10.53;10.03;;;;;;;4.58;80.70;93050.06;4999814;28;20235;-76
2024/01/27 03:49:02;;;;;;;9.80;9.40;;;;;;;4.41;83.89;93057.78;5019496;28;21066;-77
2024/01/27 03:51:28;;;;;;;9.93;9.57;;;;;;;4.46;85.06;93062.25;5000538;28;20227;-77
2024/01/27 03:53:54;;;;;;;10.10;9.70;;;;;;;4.45;85.20;93047.78;5003439;28;20234;-76
2024/01/27 03:56:19;;;;;;;11.10;10.33;;;;;;;4.40;85.50;93045.88;5003960;28;20226;-77
2024/01/27 03:58:44;;;;;;;8.87;8.47;;;;;;;4.36;86.07;93043.97;5009360;28;20245;-77
2024/01/27 04:01:10;;;;;;;10.20;9.80;;;;;;;4.04;86.88;93037.66;5014210;28;20231;-76
2024/01/27 04:03:35;;;;;;;11.13;10.43;;;;;;;4.08;88.48;93051.69;4998391;28;20199;-76
2024/01/27 04:06:02;;;;;;;10.37;9.97;;;;;;;4.13;88.04;93041.47;5027580;28;20291;-76
2024/01/27 04:08:29;;;;;;;11.13;10.23;;;;;;;4.24;87.63;93056.16;5009152;28;20180;-77
2024/01/27 04:10:54;;;;;;;9.80;9.27;;;;;;;4.30;87.62;93050.06;5008407;28;20227;-77
2024/01/27 04:13:19;;;;;;;10.00;9.33;;;;;;;4.07;87.73;93035.41;5000584;28;20215;-77
2024/01/27 04:15:45;;;;;;;11.13;10.53;;;;;;;4.01;87.85;93051.84;5001988;28;20219;-77
2024/01/27 04:18:11;;;;;;;10.23;9.77;;;;;;;4.25;87.56;93049.97;5000899;28;20180;-77
2024/01/27 04:20:37;;;;;;;10.00;9.50;;;;;;;4.35;86.66;93048.38;5007287;28;20211;-78
2024/01/27 04:23:02;;;;;;;10.70;10.30;;;;;;;4.31;86.85;93041.31;5004943;28;20196;-77
2024/01/27 04:25:28;;;;;;;10.20;9.67;;;;;;;4.44;88.06;93051.38;4996618;28;20242;-77
2024/01/27 04:27:53;;;;;;;10.77;10.27;;;;;;;4.41;88.31;93055.19;5008075;28;20208;-77
2024/01/27 04:30:19;;;;;;;10.40;9.57;;;;;;;4.55;88.14;93061.69;5005365;28;20214;-77
2024/01/27 04:32:44;;;;;;;10.77;9.97;;;;;;;4.52;88.09;93074.25;5008525;28;20788;-77
2024/01/27 04:35:11;;;;;;;11.80;11.20;;;;;;;4.57;88.01;93062.25;5005337;28;20186;-77
2024/01/27 04:37:37;;;;;;;11.50;10.63;;;;;;;4.65;86.76;93067.00;5034640;28;20183;-77
2024/01/27 04:40:07;;;;;;;12.27;11.37;;;;;;;4.61;85.97;93071.09;5006492;28;20261;-77
2024/01/27 04:42:38;;;;;;;9.90;9.47;;;;;;;4.57;86.73;93056.28;5005215;28;20231;-76
2024/01/27 04:45:05;;;;;;;10.17;9.67;;;;;;;4.68;88.83;93053.66;5010931;28;20191;-76
2024/01/27 04:47:31;;;;;;;10.40;9.93;;;;;;;4.81;89.18;93053.34;4994666;28;20674;-76
2024/01/27 04:49:59;;;;;;;10.10;9.50;;;;;;;4.71;89.47;93047.22;5007578;28;20281;-75
2024/01/27 04:52:26;;;;;;;9.50;9.13;;;;;;;4.83;89.16;93035.81;5006644;28;20230;-75
2024/01/27 04:54:51;;;;;;;10.27;9.87;;;;;;;4.75;90.23;93033.59;5007684;28;20183;-76
2024/01/27 04:57:17;;;;;;;11.30;10.90;;;;;;;4.86;90.58;93055.22;5009321;28;20223;-76
2024/01/27 04:59:42;;;;;;;9.17;8.83;;;;;;;4.86;90.72;93037.13;5009095;28;20194;-77
2024/01/27 05:02:07;;;;;;;9.63;9.23;;;;;;;4.92;90.83;93049.13;5007209;28;20234;-76
2024/01/27 05:04:33;;;;;;;10.23;9.83;;;;;;;4.92;91.12;93055.09;4999805;28;20219;-76
2024/01/27 05:06:58;;;;;;;9.27;8.97;;;;;;;4.97;90.94;93064.75;5004000;28;20228;-76
2024/01/27 05:09:24;;;;;;;9.93;9.60;;;;;;;4.83;91.71;93058.28;5010516;28;20215;-76
2024/01/27 05:11:52;;;;;;;10.10;9.70;;;;;;;4.88;93.10;93064.34;5006525;28;20303;-75
2024/01/27 05:14:18;;;;;;;9.27;8.80;;;;;;;4.83;93.65;93051.31;5007097;28;20201;-76
2024/01/27 05:16:43;;;;;;;10.03;9.70;;;;;;;4.83;94.13;93051.31;4999302;28;20220;-77
2024/01/27 05:19:11;;;;;;;10.23;9.83;;;;;;;4.84;95.71;93070.97;4995820;28;20196;-76
2024/01/27 05:21:36;;;;;;;10.47;9.80;;;;;;;4.72;96.24;93059.91;4996988;28;20226;-76
2024/01/27 05:24:01;;;;;;;11.03;10.53;;;;;;;4.66;97.43;93067.81;5010674;28;20188;-75
2024/01/27 05:26:27;;;;;;;10.73;10.33;;;;;;;4.61;98.76;93065.13;5015839;28;20222;-76
2024/01/27 05:28:52;;;;;;;10.53;10.13;;;;;;;4.52;99.81;93064.72;4997818;28;20183;-76
2024/01/27 05:31:18;;;;;;;9.83;9.53;;;;;;;4.51;99.92;93016.59;5000580;28;20232;-76
2024/01/27 05:33:43;;;;;;;10.07;9.67;;;;;;;4.83;99.83;93064.25;4998374;28;20230;-76
2024/01/27 05:36:08;;;;;;;9.97;9.57;;;;;;;4.75;100.00;93051.69;5006887;28;20232;-76
2024/01/27 05:38:34;;;;;;;10.23;9.80;;;;;;;5.01;99.27;93065.06;5002239;28;20223;-76
2024/01/27 05:41:02;;;;;;;11.33;10.83;;;;;;;5.19;99.01;93075.19;5006401;28;20991;-76
2024/01/27 05:43:28;;;;;;;11.13;10.53;;;;;;;5.24;98.50;93080.44;5005330;28;20268;-76
2024/01/27 05:45:53;;;;;;;10.43;10.03;;;;;;;5.42;96.53;93072.44;4995291;28;20228;-76
2024/01/27 05:48:19;;;;;;;10.00;9.40;;;;;;;5.11;96.37;93076.38;5006375;28;20195;-76
2024/01/27 05:50:58;;;;;;;9.60;9.30;;;;;;;5.22;96.42;93078.09;5011040;28;20235;-76
2024/01/27 05:53:23;;;;;;;8.83;8.53;;;;;;;5.44;94.46;93062.66;5007715;28;20191;-74
2024/01/27 05:55:49;;;;;;;10.53;10.13;;;;;;;5.33;95.34;93079.03;4996653;28;20228;-75
2024/01/27 05:58:15;;;;;;;9.73;9.43;;;;;;;5.39;95.32;93075.50;5007282;28;20203;-76
2024/01/27 06:00:45;;;;;;;9.40;9.10;;;;;;;5.22;96.50;93082.47;5002352;28;20287;-75
2024/01/27 06:03:10;;;;;;;9.83;9.47;;;;;;;5.40;95.77;93093.41;5011315;28;20196;-74
2024/01/27 06:05:36;;;;;;;10.17;9.87;;;;;;;5.41;96.03;93104.53;5005284;28;20291;-82
2024/01/27 06:08:03;;;;;;;10.63;10.13;;;;;;;5.34;96.29;93096.16;4999983;28;20183;-83
2024/01/27 06:10:28;;;;;;;10.50;9.93;;;;;;;5.43;94.82;93082.56;5006130;28;20255;-81
2024/01/27 06:12:53;;;;;;;10.77;10.37;;;;;;;5.42;94.31;93096.53;5000071;28;20205;-69
2024/01/27 06:15:18;;;;;;;10.93;10.50;;;;;;;5.56;93.24;93102.19;4998876;28;20199;-71
2024/01/27 06:17:44;;;;;;;9.60;9.20;;;;;;;5.62;93.25;93124.56;5001674;28;20199;-74
2024/01/27 06:20:10;;;;;;;9.63;9.33;;;;;;;5.63;94.34;93113.19;5007236;28;20180;-73
2024/01/27 06:22:35;;;;;;;9.83;9.47;;;;;;;5.57;92.77;93124.50;5004393;28;20205;-74
2024/01/27 06:25:00;;;;;;;9.33;9.03;;;;;;;5.39;92.87;93096.22;5001254;28;20199;-75
2024/01/27 06:27:26;;;;;;;9.77;9.37;;;;;;;5.61;92.34;93128.97;5017541;28;20227;-75
2024/01/27 06:29:51;;;;;;;11.37;10.97;;;;;;;5.30;92.15;93082.09;5007850;28;20218;-74
2024/01/27 06:32:16;;;;;;;11.60;11.00;;;;;;;5.19;92.83;93090.72;5002307;28;20228;-76
2024/01/27 06:34:42;;;;;;;9.87;9.57;;;;;;;5.26;91.62;93102.47;5003109;28;20192;-73
2024/01/27 06:37:07;;;;;;;10.67;10.20;;;;;;;5.34;90.93;93114.28;5006522;28;20223;-74
2024/01/27 06:39:32;;;;;;;9.93;9.63;;;;;;;5.55;88.68;93162.78;5006085;28;20246;-75
2024/01/27 06:41:58;;;;;;;10.17;9.77;;;;;;;5.48;87.16;93154.38;5004721;28;20292;-75
2024/01/27 06:44:23;;;;;;;9.80;9.47;;;;;;;5.55;86.53;93152.41;5003580;28;20184;-82
2024/01/27 06:46:51;;;;;;;8.77;8.47;;;;;;;5.55;85.67;93173.13;5004438;28;20782;-75
2024/01/27 06:49:17;;;;;;;11.57;10.73;;;;;;;5.51;85.84;93166.88;5001101;28;20220;-75
2024/01/27 06:51:43;;;;;;;10.43;9.93;;;;;;;5.47;83.28;93145.81;5000503;28;20246;-75
2024/01/27 06:54:09;;;;;;;8.97;8.67;;;;;;;5.69;82.22;93174.41;5000642;28;20189;-75
2024/01/27 06:56:34;;;;;;;12.13;11.63;;;;;;;5.52;79.71;93171.00;5009311;28;20229;-75
2024/01/27 06:58:59;;;;;;;9.90;9.60;;;;;;;5.61;80.86;93198.88;5005530;28;20195;-76
2024/01/27 07:01:24;;;;;;;10.47;10.07;;;;;;;5.47;81.87;93196.81;5023351;28;20295;-75
2024/01/27 07:03:50;;;;;;;9.37;9.07;;;;;;;5.23;81.88;93177.25;5018656;28;20204;-75
2024/01/27 07:06:15;;;;;;;9.23;8.93;;;;;;;5.31;82.23;93189.81;5001950;28;20235;-84
2024/01/27 07:08:41;;;;;;;10.63;10.23;;;;;;;5.45;82.69;93188.50;4996481;28;20192;-76
2024/01/27 07:11:06;;;;;;;10.53;10.13;;;;;;;5.50;79.70;93162.69;5013745;28;20840;-78
2024/01/27 07:13:33;;;;;;;10.90;10.43;;;;;;;5.61;77.83;93169.59;5008335;28;20243;-79
2024/01/27 07:15:59;;;;;;;9.53;9.03;;;;;;;5.58;76.89;93178.63;5011422;28;20338;-75
2024/01/27 07:18:25;;;;;;;10.30;9.90;;;;;;;5.61;76.13;93167.00;5008255;28;20207;-77
2024/01/27 07:20:51;;;;;;;9.47;9.17;;;;;;;5.66;76.00;93195.59;5007247;28;20234;-77
2024/01/27 07:23:17;;;;;;;9.27;8.87;;;;;;;5.52;78.13;93171.81;5009191;28;20188;-78
2024/01/27 07:25:43;;;;;;;10.03;9.63;;;;;;;5.34;77.75;93166.06;5004589;28;20231;-76
2024/01/27 07:28:08;;;;;;;10.00;9.43;;;;;;;5.28;78.71;93166.97;5003814;28;20192;-76
2024/01/27 07:30:34;;;;;;;9.73;9.37;;;;;;;5.19;78.80;93186.47;5005527;28;20252;-76
2024/01/27 07:32:59;;;;;;;10.33;9.83;;;;;;;5.28;79.46;93200.59;5026000;28;20202;-76
2024/01/27 07:35:24;;;;;;;10.20;9.60;;;;;;;5.04;79.51;93206.91;5024607;28;20187;-76
2024/01/27 07:37:50;;;;;;;10.40;9.90;;;;;;;4.81;79.64;93218.09;5022206;28;20310;-75
2024/01/27 07:40:15;;;;;;;11.97;11.27;;;;;;;4.63;78.74;93231.97;5022107;28;20239;-78
2024/01/27 07:42:41;;;;;;;10.77;10.10;;;;;;;4.50;80.41;93278.72;5028607;28;20203;-77
2024/01/27 07:45:08;;;;;;;11.23;10.73;;;;;;;4.26;80.92;93266.81;5008600;28;20204;-77
2024/01/27 07:47:33;;;;;;;12.23;11.50;;;;;;;4.22;79.42;93250.16;4980665;28;20216;-79
2024/01/27 07:49:59;;;;;;;10.50;10.03;;;;;;;4.47;81.30;93260.28;4989936;28;20827;-76
2024/01/27 07:52:24;;;;;;;11.47;10.43;;;;;;;4.29;80.51;93266.38;5002797;28;20228;-78
2024/01/27 07:54:49;;;;;;;10.97;10.37;;;;;;;4.21;82.09;93247.81;5004023;28;20203;-78
2024/01/27 07:57:15;;;;;;;11.33;10.83;;;;;;;4.19;82.31;93266.13;5007941;28;20242;-78
2024/01/27 07:59:40;;;;;;;11.37;10.83;;;;;;;4.16;80.11;93248.50;5021186;28;20204;-76
2024/01/27 08:02:05;;;;;;;11.60;11.00;;;;;;;4.28;79.53;93269.94;5002213;28;20238;-78
2024/01/27 08:04:31;;;;;;;11.57;11.07;;;;;;;4.00;80.22;93243.97;5010472;28;20199;-75
2024/01/27 08:06:56;;;;;;;12.47;11.57;;;;;;;4.13;79.82;93276.56;5007554;28;20223;-77
2024/01/27 08:09:21;;;;;;;11.93;11.23;;;;;;;4.05;80.90;93274.28;5007223;28;20234;-75
2024/01/27 08:11:51;;;;;;;11.77;10.93;;;;;;;4.12;80.68;93280.16;5005102;28;20245;-76
2024/01/27 08:14:16;;;;;;;11.97;11.17;;;;;;;4.28;82.46;93277.69;5009368;28;20198;-76
2024/01/27 08:16:43;;;;;;;12.13;11.43;;;;;;;4.43;79.22;93283.22;5034109;28;20220;-75
2024/01/27 08:19:08;;;;;;;11.77;11.20;;;;;;;4.78;77.48;93285.78;5008873;28;20252;-76
2024/01/27 08:21:33;;;;;;;13.57;12.73;;;;;;;4.63;75.51;93272.53;5014921;28;20227;-75
2024/01/27 08:23:59;;;;;;;11.47;10.87;;;;;;;4.58;75.51;93260.28;5007160;28;20191;-76
2024/01/27 08:26:24;;;;;;;10.57;10.17;;;;;;;4.58;73.58;93257.72;5007619;28;20296;-76
2024/01/27 08:28:50;;;;;;;12.70;11.90;;;;;;;4.85;70.88;93279.50;5014103;28;20199;-77
2024/01/27 08:31:15;;;;;;;11.30;10.70;;;;;;;4.93;70.90;93271.38;5003078;28;20247;-75
2024/01/27 08:33:41;;;;;;;12.37;11.77;;;;;;;4.96;69.74;93242.44;5006310;28;20184;-75
2024/01/27 08:36:06;;;;;;;10.37;9.87;;;;;;;4.93;71.37;93258.44;5001054;28;20228;-76
2024/01/27 08:38:32;;;;;;;12.50;11.80;;;;;;;4.77;71.92;93259.16;5009802;28;20229;-75
2024/01/27 08:40:57;;;;;;;11.87;11.17;;;;;;;4.70;74.76;93250.72;5020843;28;20235;-77
2024/01/27 08:43:23;;;;;;;12.17;11.50;;;;;;;4.64;73.47;93248.25;5005811;28;20183;-78
2024/01/27 08:45:48;;;;;;;22.17;11.23;;;;;;;4.45;74.26;93234.66;5006254;28;20227;-79
2024/01/27 08:48:15;;;;;;;11.17;10.57;;;;;;;4.57;75.36;93204.44;5007074;28;20199;-83
2024/01/27 08:50:40;;;;;;;11.03;10.43;;;;;;;4.67;74.46;93232.28;5001493;28;20227;-77
2024/01/27 08:53:05;;;;;;;11.47;10.80;;;;;;;4.76;73.72;93229.13;5006483;28;20195;-80
2024/01/27 08:55:31;;;;;;;10.87;10.33;;;;;;;4.93;73.49;93213.69;5005801;28;20254;-77
2024/01/27 08:57:57;;;;;;;11.23;10.70;;;;;;;5.03;71.26;93177.63;5011192;28;20316;-78
2024/01/27 09:00:22;;;;;;;13.47;12.57;;;;;;;4.95;69.80;93185.75;5001488;28;20191;-76
2024/01/27 09:02:47;;;;;;;10.33;9.93;;;;;;;5.08;68.95;93188.09;5002523;28;20180;-76
2024/01/27 09:05:13;;;;;;;12.63;11.87;;;;;;;5.31;66.08;93213.13;4997443;28;20187;-76
2024/01/27 09:07:38;;;;;;;10.37;9.97;;;;;;;5.35;64.70;93189.13;5005994;28;20237;-81
2024/01/27 09:10:04;;;;;;;11.37;10.70;;;;;;;5.41;65.61;93177.03;5007588;28;20214;-74
2024/01/27 09:12:29;;;;;;;11.10;10.60;;;;;;;5.34;66.75;93186.75;5011350;28;20943;-71
2024/01/27 09:14:55;;;;;;;13.57;12.70;;;;;;;5.18;68.03;93164.22;5007946;28;20210;-75
2024/01/27 09:17:20;;;;;;;12.90;11.93;;;;;;;5.32;68.24;93168.09;5012601;28;20228;-79
2024/01/27 09:19:46;;;;;;;12.37;11.67;;;;;;;5.35;68.45;93177.97;5011231;28;20191;-75
2024/01/27 09:22:11;;;;;;;11.17;10.67;;;;;;;5.21;70.37;93179.28;5014823;28;20267;-76
2024/01/27 09:24:37;;;;;;;13.97;13.23;;;;;;;5.00;72.48;93141.13;5007049;28;20221;-76
2024/01/27 09:27:03;;;;;;;12.97;12.27;;;;;;;5.12;71.78;93181.44;5014594;28;20326;-76
2024/01/27 09:29:29;;;;;;;11.37;10.87;;;;;;;5.45;72.85;93173.75;5006841;28;20469;-76
2024/01/27 09:31:54;;;;;;;12.37;11.50;;;;;;;5.26;73.28;93197.50;5010763;28;20271;-74
2024/01/27 09:34:20;;;;;;;11.97;11.07;;;;;;;5.16;73.60;93177.38;5005429;28;20180;-75
2024/01/27 09:36:45;;;;;;;11.97;11.23;;;;;;;5.00;71.74;93185.09;5001758;28;20236;-75
2024/01/27 09:39:10;;;;;;;12.13;11.53;;;;;;;4.94;71.87;93166.09;5009576;28;20282;-74
2024/01/27 09:41:37;;;;;;;10.97;10.43;;;;;;;5.47;70.30;93218.31;5069437;28;20212;-74
2024/01/27 09:44:04;;;;;;;12.10;11.50;;;;;;;5.72;69.39;93223.16;5083253;28;20196;-75
2024/01/27 09:46:31;;;;;;;10.00;9.60;;;;;;;5.56;70.27;93200.59;5026592;28;20252;-75
2024/01/27 09:48:57;;;;;;;10.93;10.43;;;;;;;5.71;67.82;93203.44;4989857;28;20247;-76
2024/01/27 09:51:22;;;;;;;9.80;9.23;;;;;;;6.15;67.46;93213.78;4984172;28;20228;-76
2024/01/27 09:53:51;;;;;;;10.83;10.37;;;;;;;6.11;67.63;93235.22;4984107;28;20436;-75
2024/01/27 09:56:18;;;;;;;12.57;11.97;;;;;;;5.79;69.75;93231.56;4982171;28;20232;-73
2024/01/27 09:58:44;;;;;;;10.63;9.83;;;;;;;5.60;70.70;93233.59;4982545;28;20187;-73
2024/01/27 10:01:10;;;;;;;11.00;10.53;;;;;;;5.58;74.70;93234.81;4987075;28;20222;-78
2024/01/27 10:03:38;;;;;;;10.87;10.37;;;;;;;5.67;72.50;93238.59;5000979;28;20192;-74
2024/01/27 10:06:07;;;;;;;11.30;10.70;;;;;;;5.70;71.68;93261.44;4998297;28;20232;-79
2024/01/27 10:08:33;;;;;;;11.87;11.37;;;;;;;5.55;71.53;93238.66;4998352;28;20192;-73
2024/01/27 10:10:58;;;;;;;11.10;10.50;;;;;;;5.64;72.31;93259.78;5001941;28;20257;-80
2024/01/27 10:13:26;;;;;;;11.57;11.17;;;;;;;5.29;72.81;93261.72;4999451;28;20200;-77
2024/01/27 10:16:04;;;;;;;10.30;9.80;;;;;;;5.42;73.29;93274.38;5000880;28;20305;-76
2024/01/27 10:18:31;;;;;;;12.40;11.43;;;;;;;5.64;72.97;93280.50;4993959;28;20215;-78
2024/01/27 10:20:57;;;;;;;11.27;10.77;;;;;;;5.53;72.62;93309.81;5003355;28;20282;-74
2024/01/27 10:23:23;;;;;;;10.77;10.37;;;;;;;5.57;73.51;93285.03;5006669;28;20219;-76
2024/01/27 10:25:49;;;;;;;11.57;10.87;;;;;;;5.21;74.87;93295.75;5001312;28;20231;-75
2024/01/27 10:28:14;;;;;;;11.37;10.77;;;;;;;4.82;75.34;93318.72;4999024;28;20173;-74
2024/01/27 10:30:40;;;;;;;11.80;11.10;;;;;;;5.04;75.87;93294.88;5021883;28;20296;-76
2024/01/27 10:33:10;;;;;;;11.40;10.80;;;;;;;5.09;76.74;93316.44;4998525;28;20251;-75
2024/01/27 10:35:35;;;;;;;11.47;10.97;;;;;;;5.18;75.65;93309.13;4998812;28;20244;-75
2024/01/27 10:38:00;;;;;;;10.47;9.87;;;;;;;4.66;76.13;93311.66;5033079;28;20199;-75
2024/01/27 10:40:28;;;;;;;12.03;11.33;;;;;;;4.80;76.87;93273.41;5000073;28;20224;-76
2024/01/27 10:43:04;;;;;;;13.70;12.70;;;;;;;5.08;76.25;93312.31;5006058;28;20196;-74
2024/01/27 10:45:35;;;;;;;13.07;12.17;;;;;;;4.78;75.60;93290.97;5011465;28;20226;-80
2024/01/27 10:48:02;;;;;;;11.03;10.53;;;;;;;4.83;76.77;93327.28;5003999;28;20203;-82
2024/01/27 10:50:27;;;;;;;12.33;11.53;;;;;;;4.62;76.41;93323.47;5008099;28;20232;-79
2024/01/27 10:52:57;;;;;;;12.63;11.97;;;;;;;4.86;76.56;93317.28;5005529;28;20199;-78
2024/01/27 10:55:22;;;;;;;11.30;10.80;;;;;;;4.70;75.41;93310.19;5002473;28;20184;-80
2024/01/27 10:57:50;;;;;;;12.23;11.60;;;;;;;4.71;75.77;93293.69;5012705;28;20179;-79
2024/01/27 11:00:16;;;;;;;12.97;12.17;;;;;;;4.91;75.45;93307.03;5007323;28;20203;-80
2024/01/27 11:02:42;;;;;;;11.53;10.93;;;;;;;4.83;76.09;93293.66;5009123;28;20190;-79
2024/01/27 11:05:10;;;;;;;13.93;13.13;;;;;;;4.81;77.25;93295.69;5001099;28;20188;-80
2024/01/27 11:07:38;;;;;;;11.60;11.00;;;;;;;5.05;75.39;93317.13;5001665;28;20223;-80
2024/01/27 11:10:04;;;;;;;10.83;10.43;;;;;;;4.79;76.25;93342.47;4999643;28;20211;-79
2024/01/27 11:12:30;;;;;;;11.03;10.53;;;;;;;4.68;76.90;93332.13;5008005;28;20207;-81
2024/01/27 11:14:58;;;;;;;12.07;11.57;;;;;;;4.62;77.23;93297.59;5001184;28;20180;-79
2024/01/27 11:17:24;;;;;;;10.27;9.83;;;;;;;4.83;77.05;93306.59;5000490;28;20226;-77
2024/01/27 11:19:50;;;;;;;12.93;12.23;;;;;;;4.89;75.88;93313.44;5003331;28;20172;-78
2024/01/27 11:22:26;;;;;;;9.83;9.43;;;;;;;4.91;76.36;93332.13;5000942;28;20219;-79
2024/01/27 11:24:53;;;;;;;10.57;10.17;;;;;;;4.74;78.20;93326.84;5008756;28;20289;-79